Latest Observation

42 Stations

15 Minute Data | America/Los_Angeles
as of 9/6/26 6:45 AM PDT
Station Date Time Temp (°F) RH (%) Dew Pt (°F) Wind Spd (mph) Wind Dir (°) Wind Gust (mph) Latest Rain (In) Daily Rain (In) Daily Min Temp (°F) Daily Max Temp (°F) Daily Max Wind (mph)
Elk Mt. Farm 8/13/26 1500 85.6   7.4 - - - - - - - 51.4   1.1 85.6   7.4 -
Upper Lake 9/6/26 0645 40.3   0.8 95   2 39.0   1.2 0.2 NNW | 348 2.0   1.2 0.00 0.00 40.0   0.8 47.8   0.1 2.2   3.0
Scotts Valley 9/6/26 0645 35.3   1.3 95   2 33.9   1.7 0.1 WSW | 245 0.8   0.7 0.00 0.00 35.0   1.3 41.9   2.0 1.6   1.5
Scotts Valley-South (Bella Vista) 9/6/26 0645 40.4   1.2 84   10 36.0   4.0 1.0 S | 178 2.5   0.6 0.00 0.00 39.9   1.4 46.4   0.3 3.9   0.0
Kelseyville 9/6/26 0645 40.6   0.4 93   2 38.6   0.9 0.3 SSE | 152 2.0   0.2 0.00 0.00 40.2   0.4 50.4   1.7 3.7   1.1
Kelseyville Remote 9/6/26 0630 40.4   2.6 81   4 34.9   4.0 - - - 0.00 0.00 40.3   2.0 51.5   1.4 -
Kelseyville (Clark Drive) 9/6/26 0645 38.2   0.8 - - - - - 0.00 0.00 37.8   0.6 46.6   1.2 -
Kelsey Bench (Oaklea) 9/6/26 0645 44.6   0.6 80   11 38.9   4.0 3.5 SSE | 168 5.0   0.3 0.00 0.00 44.2   0.9 51.5   1.1 6.2   0.5
Smith Lane (Kelseyville-South) 9/6/26 0645 38.8   0.8 92   4 36.7   1.8 0.0 SE | 142 1.5   0.6 0.00 0.00 38.4   0.7 46.9   0.1 4.3   1.1
Bell Hill-West 9/6/26 0645 42.4   0.1 94   6 40.8   1.7 2.6 S | 186 3.8   0.3 0.00 0.00 41.9   0.0 47.9   1.6 4.4   0.3
High Valley Ridgeline (Brassfield) 9/3/26 1430 64.3   0.5 52   2 46.4   1.6 12.2 WSW | 242 17.9   7.4 0.00 0.01 55.0   3.7 66.3   0.1 20.5   5.3
Wight Way (Adobe Creek) 9/6/26 0600 41.0   2.3 92   3 38.9   1.5 2.1 SE | 135 4.1   1.8 0.00 0.00 39.8   1.3 44.7   1.2 4.7   1.9
Ridgeline Top (Brassfield) 9/3/26 1430 66.6   0.4 - - - - - - - 54.8   3.7 69.7   1.1 -
Ridgeline Low (Brassfield) 9/3/26 1430 66.8   0.7 - - - - - - - 56.8   4.6 67.8   0.9 -
Long Valley (Shannon) 6/29/26 1400 84.9   4.6 25   1 44.9   3.2 2.9 ENE | 75 10.2   0.4 0.00 0.00 46.4   0.4 86.9   6.5 13.7   1.8
High Valley Winery 9/3/26 1430 65.6   2.0 49   1 45.9   1.2 9.6 WSW | 238 17.0   7.0 0.00 0.01 57.3   4.2 67.3   2.2 17.0   1.1
Round Mtn Rd. 9/6/26 0645 45.5   0.9 - - - - - - - 44.4   0.2 51.7   2.4 -
Circle O 9/6/26 0645 43.1   0.8 - - - - - - - 42.0   0.6 51.2   4.4 -
Robertsbridge Vineyards 9/6/26 0645 39.6   3.1 88   6 36.4   4.9 - - - - - 38.9   2.4 43.9   0.5 -
Urgency Vineyard 9/6/26 0645 40.0   0.2 87   4 36.5   0.8 0.3 S | 187 1.5   1.5 0.00 0.00 40.0   0.2 53.3   0.2 5.9   0.5
Red Hills (Beckstoffer) 9/6/26 0645 36.4   0.5 88   6 33.3   1.2 - - - 0.00 0.00 36.4   0.6 55.9   1.1 -
Winters (Shannon) 9/6/26 0645 33.9   0.9 90   2 31.3   1.5 0.0 N | 0 0.0   0.0 0.00 0.00 33.9   0.7 46.7   2.7 3.6   1.2
Secret Pond (Shannon) 9/6/26 0645 36.2   4.0 89   3 33.2   4.9 0.0 NW | 323 0.9   0.9 0.00 0.00 36.1   3.5 55.2   1.1 7.9   0.5
Rolling Knolls (Shannon) 9/6/26 0645 38.1   2.9 92   2 35.8   3.4 0.0 SSW | 209 0.7   0.1 0.00 0.00 37.5   3.5 49.3   0.9 3.4   1.0
Lower Lake 9/6/26 0645 44.3   1.5 80   14 38.4   5.8 2.7 WSW | 242 4.7   0.8 0.00 0.00 44.3   1.5 53.5   0.1 6.7   0.5
Adamson Ranch 9/6/26 0645 39.4   1.1 92   1 37.2   1.3 0.1 WSW | 254 1.1   1.1 0.00 0.00 38.8   1.3 46.6   0.8 3.3   1.8
Middletown (Diamond D) 9/6/26 0645 39.2   4.6 92   2 37.1   5.1 0.7 N | 355 2.5   1.3 0.00 0.00 38.9   4.7 48.4   2.0 4.2   1.5
Middletown-West (Domaine Helena) 9/6/26 0645 37.8   2.7 97   2 37.0   3.3 0.8 SSW | 205 1.9   1.8 0.00 0.00 37.0   2.4 45.2   4.8 3.6   1.5
Middletown-South 9/6/26 0645 42.4   2.6 96   2 41.2   3.0 0.1 SSW | 207 1.4   0.1 0.00 0.00 42.0   2.6 47.5   2.2 3.3   0.3
Jim Davis (Langtry) 9/6/26 0645 47.7   0.0 81   11 42.1   3.3 2.0 W | 280 2.8   0.1 0.00 0.00 46.2   1.4 55.7   0.6 5.1   2.9
Napa Valley Basin 9/6/26 0645 38.3   1.8 91   2 35.9   2.4 1.3 W | 266 1.8   0.2 0.00 0.00 37.7   1.5 44.8   3.1 2.7   0.4
Lower Bohn 9/6/26 0645 37.1   1.9 80   6 31.5   3.8 0.1 SE | 140 1.2   0.8 0.00 0.00 36.5   1.6 45.4   1.7 3.7   0.6
Upper Bohn-North 9/6/26 0645 44.3   3.9 93   6 42.5   5.4 0.6 SSE | 154 1.6   0.4 0.00 0.00 43.6   3.5 50.6   1.1 3.4   0.7
Snell Peak Blk#9 9/6/26 0645 49.8   1.7 84   5 45.3   3.2 1.1 WNW | 296 2.8   0.7 0.00 0.00 48.8   2.7 57.8   1.1 4.2   0.4
Coyote Lake West 9/6/26 0645 44.0   3.2 88   1 40.6   3.4 0.1 WNW | 288 1.5   0.2 0.00 0.00 43.9   3.3 50.5   6.7 2.0   3.1
Coyote Lake Northeast 9/6/26 0645 46.6   0.8 81   8 41.2   3.1 - - - - - 45.9   1.0 55.5   0.2 -
Coyote Lake East 9/6/26 0645 39.0   1.4 90   2 36.4   2.0 - - - - - 39.0   1.4 44.3   3.0 -
Morgan Valley 9/6/26 0645 54.1   1.1 62   22 41.6   6.9 2.5 NNW | 331 4.5   4.5 0.00 0.00 52.0   0.0 57.3   1.2 13.7   1.6
Mine Pit North 9/6/26 0645 52.9   3.7 65   23 41.4   4.4 3.8 SW | 228 5.6   4.8 - - 51.9   3.6 59.3   4.7 6.3   0.4
Mine Pit South 9/6/26 0645 55.3   3.7 58   29 40.8   7.0 0.6 SSW | 199 2.6   8.2 0.00 0.00 54.6   3.4 58.4   2.7 8.6   3.7
Cow Mountain 9/6/26 0645 50.7   2.3 - - 14.0 WNW | 290 19.1   10.3 0.00 0.00 50.1   1.3 55.2   0.7 19.7   8.3
Ukiah-SE (Ruddick) 9/6/26 0645 39.2   2.7 84   6 34.9   4.4 0.0 ENE | 67 0.8   1.8 0.00 0.00 38.8   2.6 46.4   1.8 2.8   0.5
Max     55.3 97 45.3 14.0 - 19.1 0.00 0.00 54.6 59.3 19.7
Avg     42.1 86 37.8 1.5 - 2.9 0.00 - - - -
Min     33.9 58 31.3 0.0 - 0.0 0.00 0.00 33.9 41.9 1.6